sensor_id;sensor_type;location;lat;lon;timestamp;pressure;altitude;pressure_sealevel;temperature;humidity
22566;BME280;11449;51.330;19.378;2022-07-03T00:00:35;100059.28;;;19.73;100.00
22566;BME280;11449;51.330;19.378;2022-07-03T00:05:38;100055.16;;;20.70;100.00
22566;BME280;11449;51.330;19.378;2022-07-03T00:10:40;100044.12;;;20.83;100.00
22566;BME280;11449;51.330;19.378;2022-07-03T00:15:41;100037.30;;;21.44;100.00
22566;BME280;11449;51.330;19.378;2022-07-03T00:20:59;100039.21;;;21.56;100.00
22566;BME280;11449;51.330;19.378;2022-07-03T00:25:58;100036.94;;;21.50;100.00
22566;BME280;11449;51.330;19.378;2022-07-03T00:31:02;100030.05;;;21.53;100.00
22566;BME280;11449;51.330;19.378;2022-07-03T00:36:04;100028.72;;;21.39;100.00
22566;BME280;11449;51.330;19.378;2022-07-03T00:41:06;100028.24;;;21.54;100.00
22566;BME280;11449;51.330;19.378;2022-07-03T00:46:08;100023.84;;;21.60;100.00
22566;BME280;11449;51.330;19.378;2022-07-03T00:51:14;100021.73;;;21.37;100.00
22566;BME280;11449;51.330;19.378;2022-07-03T00:56:16;100023.36;;;21.96;100.00
22566;BME280;11449;51.330;19.378;2022-07-03T01:01:19;100024.44;;;21.44;100.00
22566;BME280;11449;51.330;19.378;2022-07-03T01:06:22;100012.18;;;20.59;100.00
22566;BME280;11449;51.330;19.378;2022-07-03T01:11:41;100015.47;;;21.01;100.00
22566;BME280;11449;51.330;19.378;2022-07-03T01:16:57;100020.88;;;21.64;100.00
22566;BME280;11449;51.330;19.378;2022-07-03T01:33:15;100003.87;;;22.01;100.00
22566;BME280;11449;51.330;19.378;2022-07-03T01:38:13;100001.59;;;21.52;100.00
22566;BME280;11449;51.330;19.378;2022-07-03T01:43:16;100012.17;;;21.75;100.00
22566;BME280;11449;51.330;19.378;2022-07-03T01:48:19;99996.59;;;22.10;100.00
22566;BME280;11449;51.330;19.378;2022-07-03T01:53:28;99992.33;;;21.93;100.00
22566;BME280;11449;51.330;19.378;2022-07-03T01:58:30;99987.04;;;21.99;100.00
22566;BME280;11449;51.330;19.378;2022-07-03T02:03:34;99985.20;;;22.06;100.00
22566;BME280;11449;51.330;19.378;2022-07-03T02:08:58;99985.02;;;22.02;100.00
22566;BME280;11449;51.330;19.378;2022-07-03T02:14:13;99982.47;;;22.01;100.00
22566;BME280;11449;51.330;19.378;2022-07-03T02:19:15;99979.30;;;21.87;100.00
22566;BME280;11449;51.330;19.378;2022-07-03T02:24:20;99978.52;;;22.06;100.00
22566;BME280;11449;51.330;19.378;2022-07-03T02:29:26;99985.73;;;21.63;100.00
22566;BME280;11449;51.330;19.378;2022-07-03T02:34:28;99980.67;;;21.73;100.00
22566;BME280;11449;51.330;19.378;2022-07-03T02:44:52;99982.56;;;21.00;100.00
22566;BME280;11449;51.330;19.378;2022-07-03T02:50:06;99980.23;;;20.87;100.00
22566;BME280;11449;51.330;19.378;2022-07-03T03:00:25;99969.99;;;20.65;100.00
22566;BME280;11449;51.330;19.378;2022-07-03T03:05:31;99979.75;;;20.80;100.00
22566;BME280;11449;51.330;19.378;2022-07-03T03:10:36;99969.80;;;21.48;100.00
22566;BME280;11449;51.330;19.378;2022-07-03T03:15:39;99969.81;;;21.55;100.00
22566;BME280;11449;51.330;19.378;2022-07-03T03:20:43;99959.27;;;21.02;100.00
22566;BME280;11449;51.330;19.378;2022-07-03T03:25:47;99962.14;;;21.77;100.00
22566;BME280;11449;51.330;19.378;2022-07-03T03:30:49;99971.35;;;22.07;100.00
22566;BME280;11449;51.330;19.378;2022-07-03T03:35:50;99965.81;;;21.19;100.00
22566;BME280;11449;51.330;19.378;2022-07-03T03:40:52;99972.22;;;20.87;100.00
22566;BME280;11449;51.330;19.378;2022-07-03T03:45:53;99976.38;;;20.40;100.00
22566;BME280;11449;51.330;19.378;2022-07-03T03:50:55;99977.48;;;21.88;100.00
22566;BME280;11449;51.330;19.378;2022-07-03T03:56:05;99966.95;;;21.22;100.00
22566;BME280;11449;51.330;19.378;2022-07-03T04:01:08;99973.42;;;20.74;100.00
22566;BME280;11449;51.330;19.378;2022-07-03T04:06:09;99968.41;;;20.91;100.00
22566;BME280;11449;51.330;19.378;2022-07-03T04:11:11;99967.38;;;22.66;100.00
22566;BME280;11449;51.330;19.378;2022-07-03T04:16:13;99976.77;;;22.19;100.00
22566;BME280;11449;51.330;19.378;2022-07-03T04:21:14;99968.53;;;22.69;100.00
22566;BME280;11449;51.330;19.378;2022-07-03T04:26:15;99970.05;;;22.66;100.00
22566;BME280;11449;51.330;19.378;2022-07-03T04:31:16;99968.47;;;23.08;100.00
22566;BME280;11449;51.330;19.378;2022-07-03T04:36:17;99959.42;;;22.91;100.00
22566;BME280;11449;51.330;19.378;2022-07-03T04:41:19;99956.95;;;23.70;100.00
22566;BME280;11449;51.330;19.378;2022-07-03T04:46:20;99957.05;;;23.37;100.00
22566;BME280;11449;51.330;19.378;2022-07-03T04:51:22;99950.23;;;24.24;100.00
22566;BME280;11449;51.330;19.378;2022-07-03T04:56:23;99954.31;;;23.93;100.00
22566;BME280;11449;51.330;19.378;2022-07-03T05:01:25;99962.56;;;24.03;100.00
22566;BME280;11449;51.330;19.378;2022-07-03T05:06:26;99941.59;;;23.84;100.00
22566;BME280;11449;51.330;19.378;2022-07-03T05:11:27;99961.20;;;23.48;100.00
22566;BME280;11449;51.330;19.378;2022-07-03T05:16:28;99958.80;;;22.81;100.00
22566;BME280;11449;51.330;19.378;2022-07-03T05:21:30;99961.63;;;24.57;100.00
22566;BME280;11449;51.330;19.378;2022-07-03T05:26:32;99950.26;;;24.53;100.00
22566;BME280;11449;51.330;19.378;2022-07-03T05:31:33;99954.11;;;24.38;100.00
22566;BME280;11449;51.330;19.378;2022-07-03T05:36:34;99949.26;;;23.83;100.00
22566;BME280;11449;51.330;19.378;2022-07-03T05:41:35;99943.06;;;24.94;100.00
22566;BME280;11449;51.330;19.378;2022-07-03T05:46:37;99948.27;;;24.02;100.00
22566;BME280;11449;51.330;19.378;2022-07-03T05:51:38;99949.36;;;25.28;100.00
22566;BME280;11449;51.330;19.378;2022-07-03T05:56:39;99941.36;;;24.99;100.00
22566;BME280;11449;51.330;19.378;2022-07-03T06:01:40;99946.16;;;25.34;100.00
22566;BME280;11449;51.330;19.378;2022-07-03T06:06:42;99945.32;;;25.17;100.00
22566;BME280;11449;51.330;19.378;2022-07-03T06:11:43;99950.84;;;25.71;100.00
22566;BME280;11449;51.330;19.378;2022-07-03T06:16:45;99937.52;;;26.24;100.00
22566;BME280;11449;51.330;19.378;2022-07-03T06:21:46;99942.27;;;27.20;100.00
22566;BME280;11449;51.330;19.378;2022-07-03T06:26:47;99934.24;;;27.14;100.00
22566;BME280;11449;51.330;19.378;2022-07-03T06:31:48;99925.77;;;26.98;100.00
22566;BME280;11449;51.330;19.378;2022-07-03T06:36:49;99923.16;;;26.61;100.00
22566;BME280;11449;51.330;19.378;2022-07-03T06:41:50;99924.20;;;26.96;100.00
22566;BME280;11449;51.330;19.378;2022-07-03T06:46:53;99936.66;;;27.17;100.00
22566;BME280;11449;51.330;19.378;2022-07-03T06:51:54;99924.91;;;27.49;100.00
22566;BME280;11449;51.330;19.378;2022-07-03T06:56:55;99932.37;;;29.39;100.00
22566;BME280;11449;51.330;19.378;2022-07-03T07:01:56;99917.77;;;28.60;100.00
22566;BME280;11449;51.330;19.378;2022-07-03T07:06:58;99917.52;;;28.44;100.00
22566;BME280;11449;51.330;19.378;2022-07-03T07:11:59;99900.80;;;28.16;100.00
22566;BME280;11449;51.330;19.378;2022-07-03T07:17:00;99910.63;;;29.58;100.00
22566;BME280;11449;51.330;19.378;2022-07-03T07:22:02;99900.62;;;27.18;100.00
22566;BME280;11449;51.330;19.378;2022-07-03T07:27:04;99884.75;;;26.16;100.00
22566;BME280;11449;51.330;19.378;2022-07-03T07:32:05;99887.87;;;27.95;100.00
22566;BME280;11449;51.330;19.378;2022-07-03T07:37:08;99877.21;;;28.80;100.00
22566;BME280;11449;51.330;19.378;2022-07-03T07:42:09;99876.33;;;28.46;100.00
22566;BME280;11449;51.330;19.378;2022-07-03T07:47:10;99872.60;;;28.57;100.00
22566;BME280;11449;51.330;19.378;2022-07-03T07:52:11;99873.05;;;30.75;100.00
22566;BME280;11449;51.330;19.378;2022-07-03T07:57:12;99873.97;;;31.09;100.00
22566;BME280;11449;51.330;19.378;2022-07-03T08:02:13;99872.06;;;31.31;100.00
22566;BME280;11449;51.330;19.378;2022-07-03T08:07:34;99880.97;;;33.29;100.00
22566;BME280;11449;51.330;19.378;2022-07-03T08:12:35;99870.55;;;34.33;100.00
22566;BME280;11449;51.330;19.378;2022-07-03T08:17:36;99875.03;;;32.04;100.00
22566;BME280;11449;51.330;19.378;2022-07-03T08:22:38;99862.36;;;30.51;100.00
22566;BME280;11449;51.330;19.378;2022-07-03T08:27:39;99870.75;;;28.67;100.00
22566;BME280;11449;51.330;19.378;2022-07-03T08:32:40;99863.48;;;29.78;100.00
22566;BME280;11449;51.330;19.378;2022-07-03T08:37:42;99865.40;;;30.96;100.00
22566;BME280;11449;51.330;19.378;2022-07-03T08:42:47;99854.16;;;28.99;100.00
22566;BME280;11449;51.330;19.378;2022-07-03T08:47:49;99844.20;;;27.46;100.00
22566;BME280;11449;51.330;19.378;2022-07-03T08:52:51;99851.61;;;29.61;100.00
22566;BME280;11449;51.330;19.378;2022-07-03T08:57:54;99839.44;;;28.64;100.00
22566;BME280;11449;51.330;19.378;2022-07-03T09:02:56;99840.81;;;29.93;100.00
22566;BME280;11449;51.330;19.378;2022-07-03T09:07:59;99835.80;;;30.81;100.00
22566;BME280;11449;51.330;19.378;2022-07-03T09:13:02;99835.47;;;31.43;100.00
22566;BME280;11449;51.330;19.378;2022-07-03T09:18:07;99830.73;;;29.03;100.00
22566;BME280;11449;51.330;19.378;2022-07-03T09:23:19;99832.41;;;29.37;100.00
22566;BME280;11449;51.330;19.378;2022-07-03T09:28:20;99832.05;;;29.13;100.00
22566;BME280;11449;51.330;19.378;2022-07-03T09:33:21;99831.30;;;30.97;100.00
22566;BME280;11449;51.330;19.378;2022-07-03T09:38:23;99828.08;;;29.44;100.00
22566;BME280;11449;51.330;19.378;2022-07-03T09:43:31;99819.42;;;29.72;100.00
22566;BME280;11449;51.330;19.378;2022-07-03T09:48:34;99814.53;;;30.68;100.00
22566;BME280;11449;51.330;19.378;2022-07-03T09:53:59;99805.17;;;30.19;100.00
22566;BME280;11449;51.330;19.378;2022-07-03T09:59:13;99807.69;;;29.85;100.00
22566;BME280;11449;51.330;19.378;2022-07-03T10:04:17;99796.20;;;30.96;100.00
22566;BME280;11449;51.330;19.378;2022-07-03T10:09:22;99800.64;;;32.37;100.00
22566;BME280;11449;51.330;19.378;2022-07-03T10:14:29;99794.11;;;31.58;100.00
22566;BME280;11449;51.330;19.378;2022-07-03T10:19:37;99792.78;;;30.60;100.00
22566;BME280;11449;51.330;19.378;2022-07-03T10:24:35;99786.09;;;31.06;100.00
22566;BME280;11449;51.330;19.378;2022-07-03T10:29:38;99777.86;;;31.78;100.00
22566;BME280;11449;51.330;19.378;2022-07-03T10:34:41;99773.72;;;30.74;100.00
22566;BME280;11449;51.330;19.378;2022-07-03T10:40:04;99771.13;;;31.48;100.00
22566;BME280;11449;51.330;19.378;2022-07-03T10:45:24;99762.22;;;30.32;100.00
22566;BME280;11449;51.330;19.378;2022-07-03T10:50:25;99757.34;;;29.16;100.00
22566;BME280;11449;51.330;19.378;2022-07-03T10:55:26;99743.80;;;32.83;100.00
22566;BME280;11449;51.330;19.378;2022-07-03T11:00:28;99741.63;;;29.60;100.00
22566;BME280;11449;51.330;19.378;2022-07-03T11:05:38;99732.61;;;30.35;100.00
22566;BME280;11449;51.330;19.378;2022-07-03T11:10:40;99732.59;;;31.28;100.00
22566;BME280;11449;51.330;19.378;2022-07-03T11:15:53;99730.27;;;33.06;100.00
22566;BME280;11449;51.330;19.378;2022-07-03T11:26:24;99715.70;;;31.54;100.00
22566;BME280;11449;51.330;19.378;2022-07-03T11:31:23;99709.50;;;30.48;100.00
22566;BME280;11449;51.330;19.378;2022-07-03T11:36:28;99705.86;;;31.66;100.00
22566;BME280;11449;51.330;19.378;2022-07-03T11:46:38;99697.86;;;32.33;100.00
22566;BME280;11449;51.330;19.378;2022-07-03T11:51:41;99695.16;;;31.92;100.00
22566;BME280;11449;51.330;19.378;2022-07-03T11:56:43;99699.02;;;32.38;100.00
22566;BME280;11449;51.330;19.378;2022-07-03T12:01:45;99691.88;;;31.48;100.00
22566;BME280;11449;51.330;19.378;2022-07-03T12:06:57;99680.98;;;31.16;100.00
22566;BME280;11449;51.330;19.378;2022-07-03T12:12:02;99678.08;;;31.14;100.00
22566;BME280;11449;51.330;19.378;2022-07-03T12:17:05;99669.48;;;33.17;100.00
22566;BME280;11449;51.330;19.378;2022-07-03T12:22:08;99671.55;;;31.61;100.00
22566;BME280;11449;51.330;19.378;2022-07-03T12:27:09;99663.77;;;30.49;100.00
22566;BME280;11449;51.330;19.378;2022-07-03T12:32:11;99667.13;;;32.00;100.00
22566;BME280;11449;51.330;19.378;2022-07-03T12:37:13;99662.77;;;32.50;100.00
22566;BME280;11449;51.330;19.378;2022-07-03T12:42:20;99660.83;;;32.03;100.00
22566;BME280;11449;51.330;19.378;2022-07-03T12:47:23;99664.22;;;30.83;100.00
22566;BME280;11449;51.330;19.378;2022-07-03T12:52:25;99660.32;;;32.04;100.00
22566;BME280;11449;51.330;19.378;2022-07-03T12:57:27;99655.41;;;30.17;100.00
22566;BME280;11449;51.330;19.378;2022-07-03T13:02:48;99656.56;;;31.16;100.00
22566;BME280;11449;51.330;19.378;2022-07-03T13:07:56;99649.39;;;29.40;100.00
22566;BME280;11449;51.330;19.378;2022-07-03T13:12:57;99649.73;;;30.32;100.00
22566;BME280;11449;51.330;19.378;2022-07-03T13:17:59;99643.50;;;30.06;100.00
22566;BME280;11449;51.330;19.378;2022-07-03T13:23:03;99641.47;;;30.72;100.00
22566;BME280;11449;51.330;19.378;2022-07-03T13:28:07;99638.91;;;30.36;100.00
22566;BME280;11449;51.330;19.378;2022-07-03T13:33:09;99625.53;;;30.05;100.00
22566;BME280;11449;51.330;19.378;2022-07-03T13:38:11;99618.95;;;30.41;100.00
22566;BME280;11449;51.330;19.378;2022-07-03T13:43:12;99617.65;;;29.90;100.00
22566;BME280;11449;51.330;19.378;2022-07-03T13:48:13;99616.34;;;30.28;100.00
22566;BME280;11449;51.330;19.378;2022-07-03T13:53:15;99602.39;;;30.44;100.00
22566;BME280;11449;51.330;19.378;2022-07-03T13:58:16;99605.26;;;30.13;100.00
22566;BME280;11449;51.330;19.378;2022-07-03T14:03:17;99603.25;;;29.89;100.00
22566;BME280;11449;51.330;19.378;2022-07-03T14:08:19;99610.14;;;29.84;100.00
22566;BME280;11449;51.330;19.378;2022-07-03T14:13:22;99604.70;;;29.80;100.00
22566;BME280;11449;51.330;19.378;2022-07-03T14:18:23;99604.77;;;28.95;100.00
22566;BME280;11449;51.330;19.378;2022-07-03T14:23:24;99602.11;;;29.92;100.00
22566;BME280;11449;51.330;19.378;2022-07-03T14:28:27;99592.62;;;29.13;100.00
22566;BME280;11449;51.330;19.378;2022-07-03T14:33:48;99587.92;;;28.56;100.00
22566;BME280;11449;51.330;19.378;2022-07-03T14:38:49;99587.88;;;28.80;100.00
22566;BME280;11449;51.330;19.378;2022-07-03T14:43:50;99584.03;;;29.79;100.00
22566;BME280;11449;51.330;19.378;2022-07-03T14:48:52;99584.44;;;29.27;100.00
22566;BME280;11449;51.330;19.378;2022-07-03T14:53:53;99584.47;;;29.09;100.00
22566;BME280;11449;51.330;19.378;2022-07-03T14:58:54;99574.50;;;29.45;100.00
22566;BME280;11449;51.330;19.378;2022-07-03T15:04:02;99577.75;;;29.31;100.00
22566;BME280;11449;51.330;19.378;2022-07-03T15:09:04;99570.66;;;29.16;100.00
22566;BME280;11449;51.330;19.378;2022-07-03T15:14:06;99568.20;;;30.18;100.00
22566;BME280;11449;51.330;19.378;2022-07-03T15:19:09;99560.05;;;29.36;100.00
22566;BME280;11449;51.330;19.378;2022-07-03T15:24:11;99549.25;;;29.66;100.00
22566;BME280;11449;51.330;19.378;2022-07-03T15:29:14;99539.68;;;29.28;100.00
22566;BME280;11449;51.330;19.378;2022-07-03T15:34:16;99535.87;;;29.03;100.00
22566;BME280;11449;51.330;19.378;2022-07-03T15:39:37;99535.19;;;29.62;100.00
22566;BME280;11449;51.330;19.378;2022-07-03T15:49:42;99525.41;;;29.26;100.00
22566;BME280;11449;51.330;19.378;2022-07-03T15:55:03;99536.45;;;29.11;100.00
22566;BME280;11449;51.330;19.378;2022-07-03T16:00:11;99533.20;;;29.25;100.00
22566;BME280;11449;51.330;19.378;2022-07-03T16:05:18;99525.55;;;29.20;100.00
22566;BME280;11449;51.330;19.378;2022-07-03T16:10:21;99526.19;;;29.32;100.00
22566;BME280;11449;51.330;19.378;2022-07-03T16:15:23;99525.34;;;29.14;100.00
22566;BME280;11449;51.330;19.378;2022-07-03T16:20:28;99520.36;;;29.27;100.00
22566;BME280;11449;51.330;19.378;2022-07-03T16:25:32;99510.72;;;29.07;100.00
22566;BME280;11449;51.330;19.378;2022-07-03T16:30:36;99514.81;;;29.11;100.00
22566;BME280;11449;51.330;19.378;2022-07-03T16:35:50;99524.49;;;29.13;100.00
22566;BME280;11449;51.330;19.378;2022-07-03T16:40:52;99507.52;;;29.07;100.00
22566;BME280;11449;51.330;19.378;2022-07-03T16:45:54;99514.16;;;29.52;100.00
22566;BME280;11449;51.330;19.378;2022-07-03T16:50:58;99507.14;;;29.67;100.00
22566;BME280;11449;51.330;19.378;2022-07-03T16:56:03;99512.73;;;28.83;100.00
22566;BME280;11449;51.330;19.378;2022-07-03T17:01:07;99516.84;;;29.09;100.00
22566;BME280;11449;51.330;19.378;2022-07-03T17:06:11;99507.97;;;29.20;100.00
22566;BME280;11449;51.330;19.378;2022-07-03T17:11:13;99518.39;;;29.29;100.00
22566;BME280;11449;51.330;19.378;2022-07-03T17:16:16;99518.48;;;29.02;100.00
22566;BME280;11449;51.330;19.378;2022-07-03T17:21:29;99518.23;;;29.13;100.00
22566;BME280;11449;51.330;19.378;2022-07-03T17:26:33;99506.23;;;28.62;100.00
22566;BME280;11449;51.330;19.378;2022-07-03T17:31:39;99504.69;;;28.73;100.00
22566;BME280;11449;51.330;19.378;2022-07-03T17:36:42;99493.88;;;28.73;100.00
22566;BME280;11449;51.330;19.378;2022-07-03T17:41:46;99488.99;;;28.28;100.00
22566;BME280;11449;51.330;19.378;2022-07-03T17:46:50;99487.30;;;28.94;100.00
22566;BME280;11449;51.330;19.378;2022-07-03T17:51:54;99491.75;;;28.50;100.00
22566;BME280;11449;51.330;19.378;2022-07-03T17:56:56;99497.86;;;28.83;100.00
22566;BME280;11449;51.330;19.378;2022-07-03T18:01:59;99492.41;;;28.65;100.00
22566;BME280;11449;51.330;19.378;2022-07-03T18:07:02;99490.39;;;28.32;100.00
22566;BME280;11449;51.330;19.378;2022-07-03T18:12:06;99492.00;;;28.11;100.00
22566;BME280;11449;51.330;19.378;2022-07-03T18:17:10;99496.07;;;28.43;100.00
22566;BME280;11449;51.330;19.378;2022-07-03T18:22:13;99489.31;;;28.29;100.00
22566;BME280;11449;51.330;19.378;2022-07-03T18:27:15;99500.66;;;27.92;100.00
22566;BME280;11449;51.330;19.378;2022-07-03T18:32:17;99497.91;;;27.41;100.00
22566;BME280;11449;51.330;19.378;2022-07-03T18:37:20;99500.03;;;27.47;100.00
22566;BME280;11449;51.330;19.378;2022-07-03T18:42:22;99497.84;;;27.37;100.00
22566;BME280;11449;51.330;19.378;2022-07-03T18:47:24;99505.11;;;26.69;100.00
22566;BME280;11449;51.330;19.378;2022-07-03T18:52:33;99507.27;;;26.85;100.00
22566;BME280;11449;51.330;19.378;2022-07-03T18:57:49;99505.71;;;26.38;100.00
22566;BME280;11449;51.330;19.378;2022-07-03T19:13:21;99509.34;;;25.78;100.00
22566;BME280;11449;51.330;19.378;2022-07-03T19:18:24;99524.08;;;26.29;100.00
22566;BME280;11449;51.330;19.378;2022-07-03T19:23:25;99524.76;;;26.56;100.00
22566;BME280;11449;51.330;19.378;2022-07-03T19:28:27;99526.40;;;26.82;100.00
22566;BME280;11449;51.330;19.378;2022-07-03T19:33:28;99528.64;;;26.48;100.00
22566;BME280;11449;51.330;19.378;2022-07-03T19:38:30;99532.16;;;25.07;100.00
22566;BME280;11449;51.330;19.378;2022-07-03T19:43:33;99532.30;;;25.46;100.00
22566;BME280;11449;51.330;19.378;2022-07-03T19:48:34;99536.93;;;25.09;100.00
22566;BME280;11449;51.330;19.378;2022-07-03T19:53:35;99531.34;;;25.42;100.00
22566;BME280;11449;51.330;19.378;2022-07-03T19:58:37;99525.36;;;25.23;100.00
22566;BME280;11449;51.330;19.378;2022-07-03T20:03:38;99521.91;;;26.23;100.00
22566;BME280;11449;51.330;19.378;2022-07-03T20:08:39;99522.86;;;26.28;100.00
22566;BME280;11449;51.330;19.378;2022-07-03T20:13:41;99525.63;;;26.17;100.00
22566;BME280;11449;51.330;19.378;2022-07-03T20:18:42;99529.80;;;26.15;100.00
22566;BME280;11449;51.330;19.378;2022-07-03T20:23:44;99528.54;;;25.94;100.00
22566;BME280;11449;51.330;19.378;2022-07-03T20:29:03;99524.48;;;25.64;100.00
22566;BME280;11449;51.330;19.378;2022-07-03T20:34:04;99526.53;;;25.30;100.00
22566;BME280;11449;51.330;19.378;2022-07-03T20:39:06;99527.35;;;25.57;100.00
22566;BME280;11449;51.330;19.378;2022-07-03T20:44:07;99530.46;;;25.98;100.00
22566;BME280;11449;51.330;19.378;2022-07-03T20:49:10;99530.46;;;25.98;100.00
22566;BME280;11449;51.330;19.378;2022-07-03T20:54:12;99526.94;;;25.05;100.00
22566;BME280;11449;51.330;19.378;2022-07-03T20:59:13;99535.16;;;25.19;100.00
22566;BME280;11449;51.330;19.378;2022-07-03T21:04:14;99537.48;;;24.97;100.00
22566;BME280;11449;51.330;19.378;2022-07-03T21:09:15;99545.77;;;24.99;100.00
22566;BME280;11449;51.330;19.378;2022-07-03T21:14:18;99549.72;;;24.79;100.00
22566;BME280;11449;51.330;19.378;2022-07-03T21:19:22;99548.91;;;24.67;100.00
22566;BME280;11449;51.330;19.378;2022-07-03T21:24:24;99546.59;;;24.14;100.00
22566;BME280;11449;51.330;19.378;2022-07-03T21:29:25;99536.41;;;24.51;100.00
22566;BME280;11449;51.330;19.378;2022-07-03T21:34:26;99545.45;;;24.05;100.00
22566;BME280;11449;51.330;19.378;2022-07-03T21:39:28;99539.13;;;24.34;100.00
22566;BME280;11449;51.330;19.378;2022-07-03T21:44:29;99540.11;;;24.22;100.00
22566;BME280;11449;51.330;19.378;2022-07-03T21:49:31;99545.58;;;24.37;100.00
22566;BME280;11449;51.330;19.378;2022-07-03T21:54:32;99541.70;;;23.91;100.00
22566;BME280;11449;51.330;19.378;2022-07-03T21:59:33;99538.41;;;24.04;100.00
22566;BME280;11449;51.330;19.378;2022-07-03T22:04:34;99535.48;;;23.80;100.00
22566;BME280;11449;51.330;19.378;2022-07-03T22:09:35;99530.36;;;23.77;100.00
22566;BME280;11449;51.330;19.378;2022-07-03T22:14:46;99536.80;;;24.02;100.00
22566;BME280;11449;51.330;19.378;2022-07-03T22:19:47;99525.56;;;24.13;100.00
22566;BME280;11449;51.330;19.378;2022-07-03T22:24:49;99534.88;;;23.93;100.00
22566;BME280;11449;51.330;19.378;2022-07-03T22:29:50;99534.88;;;23.93;100.00
22566;BME280;11449;51.330;19.378;2022-07-03T22:34:52;99522.56;;;23.16;100.00
22566;BME280;11449;51.330;19.378;2022-07-03T22:39:53;99506.98;;;22.15;100.00
22566;BME280;11449;51.330;19.378;2022-07-03T22:44:54;99510.48;;;23.05;100.00
22566;BME280;11449;51.330;19.378;2022-07-03T22:49:55;99511.09;;;23.72;100.00
22566;BME280;11449;51.330;19.378;2022-07-03T22:54:57;99510.74;;;23.13;100.00
22566;BME280;11449;51.330;19.378;2022-07-03T22:59:58;99514.98;;;22.99;100.00
22566;BME280;11449;51.330;19.378;2022-07-03T23:04:59;99514.06;;;23.23;100.00
22566;BME280;11449;51.330;19.378;2022-07-03T23:10:00;99514.06;;;23.23;100.00
22566;BME280;11449;51.330;19.378;2022-07-03T23:15:02;99508.06;;;23.13;100.00
22566;BME280;11449;51.330;19.378;2022-07-03T23:20:04;99503.91;;;23.50;100.00
22566;BME280;11449;51.330;19.378;2022-07-03T23:25:07;99501.97;;;22.77;100.00
22566;BME280;11449;51.330;19.378;2022-07-03T23:30:09;99496.67;;;22.88;100.00
22566;BME280;11449;51.330;19.378;2022-07-03T23:35:10;99488.39;;;23.42;100.00
22566;BME280;11449;51.330;19.378;2022-07-03T23:40:12;99490.80;;;23.29;100.00
22566;BME280;11449;51.330;19.378;2022-07-03T23:45:13;99482.33;;;23.46;100.00
22566;BME280;11449;51.330;19.378;2022-07-03T23:50:14;99485.67;;;23.31;100.00
22566;BME280;11449;51.330;19.378;2022-07-03T23:55:35;99484.66;;;23.15;100.00
